createdAt,value
2024-01-06T00:02:21.899Z,10.13
2024-01-06T00:05:25.442Z,9.53
2024-01-06T00:08:28.865Z,9.40
2024-01-06T00:11:32.229Z,8.75
2024-01-06T00:14:35.851Z,8.27
2024-01-06T00:17:39.382Z,11.20
2024-01-06T00:20:42.841Z,9.70
2024-01-06T00:23:46.232Z,9.95
2024-01-06T00:26:49.575Z,12.43
2024-01-06T00:29:53.098Z,8.38
2024-01-06T00:32:56.497Z,11.80
2024-01-06T00:36:00.049Z,9.27
2024-01-06T00:39:05.004Z,10.98
2024-01-06T00:42:08.473Z,7.47
2024-01-06T00:45:11.964Z,9.18
2024-01-06T00:48:15.558Z,12.85
2024-01-06T00:51:19.120Z,9.97
2024-01-06T00:54:22.576Z,9.18
2024-01-06T00:57:25.990Z,11.80
2024-01-06T01:00:29.504Z,12.05
2024-01-06T01:03:33.035Z,9.82
2024-01-06T01:06:39.047Z,8.93
2024-01-06T01:09:42.664Z,9.75
2024-01-06T01:12:46.326Z,9.77
2024-01-06T01:15:50.163Z,8.63
2024-01-06T01:18:53.944Z,9.50
2024-01-06T01:21:57.677Z,10.17
2024-01-06T01:25:06.518Z,8.38
2024-01-06T01:28:10.606Z,9.48
2024-01-06T01:31:14.937Z,11.20
2024-01-06T01:34:18.999Z,8.27
2024-01-06T01:37:22.845Z,8.30
2024-01-06T01:40:26.495Z,8.85
2024-01-06T01:43:30.501Z,11.10
2024-01-06T01:46:34.177Z,7.47
2024-01-06T01:49:38.771Z,8.30
2024-01-06T01:52:43.795Z,8.67
2024-01-06T01:55:48.168Z,8.27
2024-01-06T01:58:51.872Z,9.63
2024-01-06T02:01:55.321Z,9.73
2024-01-06T02:04:58.829Z,9.32
2024-01-06T02:08:02.348Z,8.17
2024-01-06T02:11:06.464Z,10.40
2024-01-06T02:14:09.857Z,9.18
2024-01-06T02:17:13.429Z,10.13
2024-01-06T02:20:21.265Z,7.93
2024-01-06T02:23:24.804Z,9.33
2024-01-06T02:26:28.273Z,7.97
2024-01-06T02:29:31.946Z,6.72
2024-01-06T02:32:35.946Z,9.18
2024-01-06T02:35:41.290Z,7.15
2024-01-06T02:38:44.910Z,9.53
2024-01-06T02:41:48.684Z,7.68
2024-01-06T02:44:52.541Z,7.82
2024-01-06T02:47:56.233Z,8.82
2024-01-06T02:50:59.875Z,10.02
2024-01-06T02:54:03.509Z,6.53
2024-01-06T02:57:07.261Z,9.32
2024-01-06T03:00:11.392Z,10.20
2024-01-06T03:03:15.110Z,8.57
2024-01-06T03:06:18.681Z,7.45
2024-01-06T03:09:22.118Z,9.60
2024-01-06T03:12:25.508Z,6.00
2024-01-06T03:15:28.902Z,9.00
2024-01-06T03:18:32.552Z,9.45
2024-01-06T03:21:36.152Z,7.43
2024-01-06T03:24:41.155Z,5.70
2024-01-06T03:27:45.024Z,7.57
2024-01-06T03:30:48.983Z,9.77
2024-01-06T03:33:55.174Z,7.70
2024-01-06T03:36:58.851Z,8.93
2024-01-06T03:40:02.660Z,8.03
2024-01-06T03:43:06.229Z,8.55
2024-01-06T03:46:09.840Z,9.20
2024-01-06T03:49:13.594Z,7.30
2024-01-06T03:52:17.155Z,6.55
2024-01-06T03:55:20.592Z,8.27
2024-01-06T03:58:23.946Z,7.85
2024-01-06T04:01:27.364Z,8.80
2024-01-06T04:04:30.898Z,10.20
2024-01-06T04:07:34.334Z,9.82
2024-01-06T04:10:37.822Z,8.37
2024-01-06T04:13:41.168Z,6.88
2024-01-06T04:16:44.632Z,7.38
2024-01-06T04:19:48.193Z,9.10
2024-01-06T04:22:51.710Z,7.28
2024-01-06T04:25:55.154Z,7.63
2024-01-06T04:28:58.552Z,9.23
2024-01-06T04:32:02.144Z,7.43
2024-01-06T04:35:05.999Z,8.57
2024-01-06T04:38:10.376Z,10.93
2024-01-06T04:41:14.041Z,12.47
2024-01-06T04:44:19.309Z,6.75
2024-01-06T04:47:22.831Z,9.20
2024-01-06T04:50:26.456Z,9.00
2024-01-06T04:53:30.105Z,9.77
2024-01-06T04:56:36.495Z,10.07
2024-01-06T04:59:40.399Z,7.72
2024-01-06T05:02:44.062Z,8.80
2024-01-06T05:05:48.050Z,10.63
2024-01-06T05:08:51.991Z,7.40
2024-01-06T05:11:55.527Z,10.90
2024-01-06T05:14:59.228Z,8.93
2024-01-06T05:18:02.962Z,9.48
2024-01-06T05:21:06.746Z,6.53
2024-01-06T05:24:10.457Z,8.55
2024-01-06T05:27:14.371Z,9.23
2024-01-06T05:30:18.003Z,9.90
2024-01-06T05:33:21.597Z,8.30
2024-01-06T05:36:25.109Z,7.38
2024-01-06T05:39:28.585Z,7.07
2024-01-06T05:42:32.254Z,8.20
2024-01-06T05:45:35.832Z,9.63
2024-01-06T05:48:41.878Z,8.75
2024-01-06T05:51:48.464Z,8.80
2024-01-06T05:54:51.968Z,10.23
2024-01-06T05:57:55.576Z,9.00
2024-01-06T06:00:59.453Z,8.35
2024-01-06T06:04:03.215Z,7.45
2024-01-06T06:07:06.676Z,8.98
2024-01-06T06:10:13.783Z,8.60
2024-01-06T06:13:17.485Z,9.00
2024-01-06T06:16:20.911Z,9.50
2024-01-06T06:19:24.463Z,6.45
2024-01-06T06:22:31.562Z,7.13
2024-01-06T06:25:35.789Z,7.97
2024-01-06T06:28:39.190Z,7.87
2024-01-06T06:31:44.333Z,8.35
2024-01-06T06:34:48.000Z,7.45
2024-01-06T06:37:51.460Z,9.73
2024-01-06T06:40:55.208Z,10.23
2024-01-06T06:43:59.619Z,6.83
2024-01-06T06:47:03.078Z,9.15
2024-01-06T06:50:06.823Z,10.10
2024-01-06T06:53:11.269Z,7.50
2024-01-06T06:56:18.489Z,10.43
2024-01-06T06:59:22.033Z,8.63
2024-01-06T07:02:25.516Z,8.33
2024-01-06T07:05:30.197Z,12.25
2024-01-06T07:08:33.828Z,9.35
2024-01-06T07:11:37.261Z,9.85
2024-01-06T07:14:40.638Z,9.37
2024-01-06T07:17:44.197Z,8.50
2024-01-06T07:20:47.631Z,9.20
2024-01-06T07:23:51.049Z,8.43
2024-01-06T07:26:54.453Z,10.00
2024-01-06T07:29:58.023Z,10.77
2024-01-06T07:33:01.502Z,11.00
2024-01-06T07:36:05.250Z,8.48
2024-01-06T07:39:08.652Z,10.88
2024-01-06T07:42:12.032Z,9.82
2024-01-06T07:45:15.583Z,11.60
2024-01-06T07:48:19.463Z,9.90
2024-01-06T07:51:22.930Z,10.63
2024-01-06T07:54:26.421Z,11.75
2024-01-06T07:57:29.828Z,10.65
2024-01-06T08:00:33.339Z,13.87
2024-01-06T08:03:36.745Z,8.93
2024-01-06T08:06:40.287Z,9.80
2024-01-06T08:09:44.021Z,10.55
2024-01-06T08:12:47.554Z,8.70
2024-01-06T08:15:52.221Z,10.57
2024-01-06T08:18:55.864Z,13.30
2024-01-06T08:21:59.384Z,10.18
2024-01-06T08:25:04.119Z,9.50
2024-01-06T08:28:07.731Z,8.43
2024-01-06T08:31:11.265Z,8.37
2024-01-06T08:34:14.861Z,10.48
2024-01-06T08:37:18.305Z,9.27
2024-01-06T08:40:21.680Z,10.30
2024-01-06T08:43:25.156Z,9.88
2024-01-06T08:46:28.554Z,10.30
2024-01-06T08:49:32.065Z,8.93
2024-01-06T08:52:35.488Z,10.00
2024-01-06T08:55:38.926Z,8.23
2024-01-06T08:58:42.353Z,8.68
2024-01-06T09:01:48.746Z,10.87
2024-01-06T09:04:53.423Z,9.20
2024-01-06T09:07:58.021Z,8.52
2024-01-06T09:11:01.746Z,8.00
2024-01-06T09:14:05.164Z,8.23
2024-01-06T09:17:08.556Z,7.50
2024-01-06T09:20:12.285Z,9.07
2024-01-06T09:23:16.668Z,7.97
2024-01-06T09:26:20.246Z,9.95
2024-01-06T09:29:23.601Z,10.52
2024-01-06T09:32:26.938Z,9.07
2024-01-06T09:35:30.331Z,7.90
2024-01-06T09:38:34.592Z,11.00
2024-01-06T09:41:38.016Z,10.32
2024-01-06T09:44:41.596Z,8.05
2024-01-06T09:47:51.065Z,11.13
2024-01-06T09:50:57.278Z,10.20
2024-01-06T09:54:02.946Z,10.95
2024-01-06T09:57:07.511Z,9.45
2024-01-06T10:00:11.287Z,8.15
2024-01-06T10:03:17.675Z,8.73
2024-01-06T10:06:24.122Z,10.10
2024-01-06T10:09:29.470Z,11.02
2024-01-06T10:12:33.489Z,10.75
2024-01-06T10:15:37.948Z,12.68
2024-01-06T10:18:41.590Z,11.80
2024-01-06T10:21:46.136Z,10.30
2024-01-06T10:24:49.526Z,9.70
2024-01-06T10:27:55.538Z,10.10
2024-01-06T10:31:00.215Z,11.80
2024-01-06T10:34:04.339Z,10.37
2024-01-06T10:37:07.891Z,10.27
2024-01-06T10:40:13.928Z,10.57
2024-01-06T10:43:18.070Z,10.82
2024-01-06T10:46:23.013Z,14.32
2024-01-06T10:49:28.234Z,10.13
2024-01-06T10:52:32.490Z,12.03
2024-01-06T10:55:36.821Z,13.85
2024-01-06T10:58:49.800Z,11.70
2024-01-06T11:01:55.349Z,13.00
2024-01-06T11:04:58.978Z,13.07
2024-01-06T11:08:02.870Z,9.30
2024-01-06T11:11:06.559Z,8.90
2024-01-06T11:14:21.430Z,12.55
2024-01-06T11:17:50.718Z,9.20
2024-01-06T11:21:23.572Z,9.97
2024-01-06T11:24:32.218Z,11.17
2024-01-06T11:27:37.427Z,9.73
2024-01-06T11:30:41.609Z,9.52
2024-01-06T11:33:48.644Z,12.25
2024-01-06T11:36:52.232Z,11.50
2024-01-06T11:39:55.766Z,10.23
2024-01-06T11:43:10.358Z,13.90
2024-01-06T11:46:14.156Z,14.00
2024-01-06T11:49:20.341Z,12.07
2024-01-06T11:52:24.136Z,8.83
2024-01-06T11:55:29.303Z,10.53
2024-01-06T11:58:34.463Z,11.70
2024-01-06T12:01:41.003Z,13.70
2024-01-06T12:04:48.631Z,11.48
2024-01-06T12:08:09.937Z,11.13
2024-01-06T12:11:13.311Z,14.10
2024-01-06T12:14:16.979Z,13.27
2024-01-06T12:17:23.077Z,13.35
2024-01-06T12:20:27.463Z,12.95
2024-01-06T12:23:30.961Z,10.57
2024-01-06T12:26:35.063Z,12.53
2024-01-06T12:29:44.695Z,10.98
2024-01-06T12:32:53.898Z,10.27
2024-01-06T12:35:57.638Z,14.82
2024-01-06T12:39:02.223Z,16.97
2024-01-06T12:42:05.960Z,14.97
2024-01-06T12:45:10.929Z,10.82
2024-01-06T12:48:14.403Z,10.85
2024-01-06T12:51:17.897Z,10.45
2024-01-06T12:54:21.389Z,11.33
2024-01-06T12:57:25.684Z,10.03
2024-01-06T13:00:29.094Z,10.13
2024-01-06T13:03:32.903Z,13.98
2024-01-06T13:06:36.859Z,13.60
2024-01-06T13:09:41.295Z,13.20
2024-01-06T13:12:44.764Z,12.33
2024-01-06T13:15:48.237Z,9.73
2024-01-06T13:18:54.347Z,8.30
2024-01-06T13:21:58.886Z,9.13
2024-01-06T13:25:02.490Z,9.40
2024-01-06T13:28:09.053Z,9.90
2024-01-06T13:31:12.511Z,8.88
2024-01-06T13:34:15.994Z,12.63
2024-01-06T13:37:19.437Z,10.90
2024-01-06T13:40:23.480Z,10.73
2024-01-06T13:43:26.907Z,10.83
2024-01-06T13:46:30.277Z,10.18
2024-01-06T13:49:33.828Z,10.98
2024-01-06T13:52:37.458Z,10.00
2024-01-06T13:55:41.013Z,13.80
2024-01-06T13:58:44.406Z,9.93
2024-01-06T14:01:47.995Z,9.57
2024-01-06T14:04:52.521Z,16.35
2024-01-06T14:07:56.783Z,9.30
2024-01-06T14:11:00.148Z,12.37
2024-01-06T14:14:03.589Z,10.70
2024-01-06T14:17:07.243Z,11.68
2024-01-06T14:20:10.930Z,10.85
2024-01-06T14:23:14.427Z,12.02
2024-01-06T14:26:21.326Z,12.23
2024-01-06T14:29:25.126Z,13.83
2024-01-06T14:32:28.652Z,14.90
2024-01-06T14:35:32.105Z,16.25
2024-01-06T14:38:35.490Z,15.85
2024-01-06T14:41:38.861Z,26.13
2024-01-06T14:44:42.254Z,19.70
2024-01-06T14:47:47.050Z,18.33
2024-01-06T14:50:52.398Z,13.65
2024-01-06T14:53:57.106Z,19.17
2024-01-06T14:57:00.501Z,19.40
2024-01-06T15:00:04.390Z,16.40
2024-01-06T15:03:07.865Z,15.98
2024-01-06T15:06:11.805Z,21.73
2024-01-06T15:09:15.409Z,26.80
2024-01-06T15:12:18.926Z,24.60
2024-01-06T15:15:22.531Z,23.57
2024-01-06T15:18:26.173Z,22.17
2024-01-06T15:21:34.642Z,19.88
2024-01-06T15:24:38.379Z,62.47
2024-01-06T15:27:41.818Z,27.33
2024-01-06T15:30:45.345Z,17.73
2024-01-06T15:33:49.336Z,19.33
2024-01-06T15:36:53.384Z,46.78
2024-01-06T15:39:56.943Z,29.85
2024-01-06T15:43:00.418Z,37.77
2024-01-06T15:46:04.039Z,37.27
2024-01-06T15:49:07.675Z,34.10
2024-01-06T15:52:11.288Z,25.90
2024-01-06T15:55:14.840Z,21.10
2024-01-06T15:58:19.573Z,20.13
2024-01-06T16:01:23.496Z,21.23
2024-01-06T16:04:27.540Z,19.00
2024-01-06T16:07:31.024Z,29.02
2024-01-06T16:10:36.753Z,25.73
2024-01-06T16:13:40.166Z,28.07
2024-01-06T16:16:43.980Z,24.73
2024-01-06T16:19:48.325Z,23.67
2024-01-06T16:22:52.129Z,23.98
2024-01-06T16:25:55.685Z,21.73
2024-01-06T16:28:59.130Z,26.80
2024-01-06T16:32:02.595Z,25.93
2024-01-06T16:35:06.189Z,26.17
2024-01-06T16:38:09.619Z,31.23
2024-01-06T16:41:13.037Z,27.60
2024-01-06T16:44:16.408Z,26.07
2024-01-06T16:47:19.886Z,28.07
2024-01-06T16:50:23.260Z,32.85
2024-01-06T16:53:26.703Z,28.48
2024-01-06T16:56:31.418Z,29.77
2024-01-06T16:59:37.525Z,27.20
2024-01-06T17:02:41.050Z,25.43
2024-01-06T17:05:44.525Z,25.48
2024-01-06T17:08:48.021Z,25.77
2024-01-06T17:11:51.477Z,23.73
2024-01-06T17:14:54.997Z,27.93
2024-01-06T17:17:58.950Z,26.77
2024-01-06T17:21:03.539Z,30.55
2024-01-06T17:24:07.101Z,33.88
2024-01-06T17:27:10.480Z,26.17
2024-01-06T17:30:16.052Z,19.17
2024-01-06T17:33:19.861Z,20.93
2024-01-06T17:36:23.431Z,19.85
2024-01-06T17:39:26.882Z,25.10
2024-01-06T17:42:30.313Z,23.88
2024-01-06T17:45:33.787Z,19.17
2024-01-06T17:48:38.278Z,21.43
2024-01-06T17:51:41.844Z,26.27
2024-01-06T17:54:45.474Z,29.77
2024-01-06T17:57:49.065Z,31.52
2024-01-06T18:00:52.908Z,34.13
2024-01-06T18:03:57.058Z,24.10
2024-01-06T18:07:00.909Z,26.48
2024-01-06T18:10:07.689Z,22.45
2024-01-06T18:13:13.291Z,20.55
2024-01-06T18:16:17.050Z,29.97
2024-01-06T18:19:20.497Z,29.27
2024-01-06T18:22:24.172Z,23.98
2024-01-06T18:25:27.617Z,21.73
2024-01-06T18:28:31.073Z,19.52
2024-01-06T18:31:34.522Z,23.63
2024-01-06T18:34:38.866Z,21.77
2024-01-06T18:37:42.572Z,31.48
2024-01-06T18:40:45.979Z,30.38
2024-01-06T18:43:49.581Z,32.55
2024-01-06T18:46:52.954Z,23.87
2024-01-06T18:49:57.264Z,27.77
2024-01-06T18:53:00.902Z,24.02
2024-01-06T18:56:04.452Z,22.48
2024-01-06T18:59:09.392Z,23.27
2024-01-06T19:02:13.230Z,23.53
2024-01-06T19:05:16.688Z,22.47
2024-01-06T19:08:20.321Z,26.25
2024-01-06T19:11:24.215Z,21.65
2024-01-06T19:14:28.033Z,29.17
2024-01-06T19:17:31.525Z,29.87
2024-01-06T19:20:35.418Z,33.23
2024-01-06T19:23:40.092Z,28.77
2024-01-06T19:26:43.503Z,19.70
2024-01-06T19:29:47.763Z,18.67
2024-01-06T19:32:51.233Z,17.30
2024-01-06T19:35:55.037Z,24.43
2024-01-06T19:38:58.436Z,23.65
2024-01-06T19:42:02.018Z,24.77
2024-01-06T19:45:06.070Z,25.90
2024-01-06T19:48:12.609Z,22.47
2024-01-06T19:51:16.749Z,26.80
2024-01-06T19:54:20.221Z,34.83
2024-01-06T19:57:23.931Z,25.98
2024-01-06T20:00:29.409Z,25.70
2024-01-06T20:03:33.271Z,24.63
2024-01-06T20:06:36.905Z,25.97
2024-01-06T20:09:46.606Z,20.65
2024-01-06T20:12:50.463Z,21.15
2024-01-06T20:15:53.986Z,25.45
2024-01-06T20:18:57.887Z,21.77
2024-01-06T20:22:01.431Z,23.50
2024-01-06T20:25:05.768Z,29.63
2024-01-06T20:28:09.957Z,27.13
2024-01-06T20:31:13.668Z,29.10
2024-01-06T20:34:17.565Z,28.90
2024-01-06T20:37:21.568Z,30.47
2024-01-06T20:40:25.114Z,34.55
2024-01-06T20:43:28.565Z,27.98
2024-01-06T20:46:31.979Z,26.38
2024-01-06T20:49:35.578Z,27.90
2024-01-06T20:52:39.770Z,30.00
2024-01-06T20:55:44.490Z,27.25
2024-01-06T20:58:48.905Z,26.25
2024-01-06T21:01:52.397Z,26.42
2024-01-06T21:04:55.971Z,24.37
2024-01-06T21:07:59.403Z,23.63
2024-01-06T21:11:03.522Z,39.63
2024-01-06T21:14:06.953Z,41.97
2024-01-06T21:17:10.699Z,40.00
2024-01-06T21:20:14.616Z,24.30
2024-01-06T21:23:28.205Z,25.93
2024-01-06T21:26:39.752Z,22.50
2024-01-06T21:29:43.161Z,24.33
2024-01-06T21:32:50.370Z,24.05
2024-01-06T21:35:53.823Z,24.70
2024-01-06T21:38:57.800Z,23.37
2024-01-06T21:42:01.842Z,21.40
2024-01-06T21:45:06.246Z,22.45
2024-01-06T21:48:09.822Z,28.20
2024-01-06T21:51:13.284Z,22.10
2024-01-06T21:54:17.011Z,28.97
2024-01-06T21:57:20.551Z,27.13
2024-01-06T22:00:24.570Z,27.63
2024-01-06T22:03:28.096Z,27.33
2024-01-06T22:06:31.755Z,21.93
2024-01-06T22:09:35.212Z,21.93
2024-01-06T22:12:38.686Z,21.42
2024-01-06T22:15:42.118Z,27.98
2024-01-06T22:18:45.926Z,23.63
2024-01-06T22:21:50.571Z,21.43
2024-01-06T22:24:54.221Z,19.03
2024-01-06T22:27:57.953Z,22.10
2024-01-06T22:31:02.433Z,20.98
2024-01-06T22:34:06.545Z,25.25
2024-01-06T22:37:10.053Z,29.93
2024-01-06T22:40:13.702Z,23.80
2024-01-06T22:43:17.484Z,24.27
2024-01-06T22:46:21.899Z,27.35
2024-01-06T22:49:26.276Z,24.92
2024-01-06T22:52:29.815Z,30.00
2024-01-06T22:55:33.168Z,20.57
2024-01-06T22:58:37.680Z,22.65
2024-01-06T23:01:41.660Z,20.17
2024-01-06T23:04:45.363Z,22.95
2024-01-06T23:07:48.876Z,28.27
2024-01-06T23:10:52.302Z,30.00
2024-01-06T23:13:55.717Z,35.03
2024-01-06T23:16:59.071Z,28.00
2024-01-06T23:20:02.749Z,22.25
2024-01-06T23:23:09.175Z,26.57
2024-01-06T23:26:12.590Z,32.80
2024-01-06T23:29:16.939Z,31.52
2024-01-06T23:32:20.402Z,29.23
2024-01-06T23:35:23.974Z,24.90
2024-01-06T23:38:27.457Z,26.03
2024-01-06T23:41:30.852Z,27.30
2024-01-06T23:44:34.260Z,29.42
2024-01-06T23:47:37.733Z,27.10
2024-01-06T23:50:43.110Z,29.35
2024-01-06T23:53:46.677Z,34.93
2024-01-06T23:56:50.063Z,36.43
2024-01-06T23:59:53.480Z,33.05
